Time;durP1;ratioP1;P1;durP2;ratioP2;P2;SDS_P1;SDS_P2;PMS_P1;PMS_P2;Temp;Humidity;BMP_temperature;BMP_pressure;BME280_temperature;BME280_humidity;BME280_pressure;Samples;Min_cycle;Max_cycle;Signal;HPM_P1;HPM_P2
2022/05/15 00:01:21;;;;;;;16.40;11.75;;;;;;;13.84;86.24;97790.41;10251217;28;20050;-59
2022/05/15 00:06:20;;;;;;;18.20;10.88;;;;;;;13.68;86.43;97760.19;10250253;28;20081;-58
2022/05/15 00:11:19;;;;;;;;;;;;;;;13.72;87.03;97777.53;10251443;28;20146;-58
2022/05/15 00:16:18;;;;;;;17.40;11.27;;;;;;;13.69;86.98;97785.41;10258193;28;19926;-58
2022/05/15 00:21:17;;;;;;;19.15;11.88;;;;;;;13.60;87.71;97785.53;10255601;28;20057;-58
2022/05/15 00:26:16;;;;;;;18.13;10.93;;;;;;;13.53;87.76;97774.28;10259364;28;20081;-58
2022/05/15 00:31:16;;;;;;;14.80;10.57;;;;;;;13.53;87.75;97780.34;10256026;28;20133;-59
2022/05/15 00:36:14;;;;;;;;;;;;;;;13.53;87.46;97782.94;10259432;28;20470;-59
2022/05/15 00:41:13;;;;;;;16.90;11.05;;;;;;;13.49;87.64;97786.50;10258464;28;20419;-58
2022/05/15 00:46:23;;;;;;;;;;;;;;;13.41;88.19;97796.13;10258683;28;20062;-58
2022/05/15 00:51:28;;;;;;;17.60;11.82;;;;;;;13.31;88.44;97784.09;10257102;28;19960;-58
2022/05/15 00:56:31;;;;;;;14.45;10.98;;;;;;;13.25;88.73;97791.97;10258942;28;20061;-58
2022/05/15 01:01:31;;;;;;;18.35;11.35;;;;;;;13.22;88.64;97787.66;10256141;28;20057;-58
2022/05/15 01:06:31;;;;;;;17.02;11.60;;;;;;;13.10;89.27;97786.06;10254019;28;20482;-59
2022/05/15 01:11:32;;;;;;;18.98;13.18;;;;;;;13.07;88.96;97790.41;10257794;28;20061;-58
2022/05/15 01:16:32;;;;;;;20.95;14.45;;;;;;;13.02;89.03;97785.25;10257217;28;20057;-58
2022/05/15 01:21:34;;;;;;;20.23;15.45;;;;;;;12.93;88.89;97783.63;10256989;28;20134;-58
2022/05/15 01:26:35;;;;;;;22.83;17.33;;;;;;;12.89;89.04;97778.47;10254704;28;20077;-58
2022/05/15 01:31:37;;;;;;;24.30;17.50;;;;;;;12.82;89.11;97777.66;10256499;28;20081;-58
2022/05/15 01:36:36;;;;;;;22.60;16.90;;;;;;;12.77;89.31;97776.00;10255804;28;20074;-58
2022/05/15 01:41:36;;;;;;;22.52;17.10;;;;;;;12.61;89.32;97760.50;10256228;28;20058;-58
2022/05/15 01:46:36;;;;;;;23.00;15.48;;;;;;;12.59;89.25;97764.00;10252524;28;20026;-58
2022/05/15 01:51:39;;;;;;;26.17;14.98;;;;;;;12.55;89.10;97777.91;10255424;28;20069;-58
2022/05/15 01:56:38;;;;;;;20.83;13.95;;;;;;;12.40;89.66;97771.09;10254918;28;20073;-58
2022/05/15 02:01:38;;;;;;;22.27;15.02;;;;;;;12.30;90.02;97771.16;10254847;28;20068;-58
2022/05/15 02:06:38;;;;;;;22.67;15.13;;;;;;;12.30;89.48;97776.38;10254785;28;20077;-58
2022/05/15 02:11:38;;;;;;;22.50;15.43;;;;;;;12.27;89.63;97775.47;10254482;28;20062;-58
2022/05/15 02:16:37;;;;;;;34.53;16.25;;;;;;;12.23;89.30;97774.66;10253714;28;20057;-58
2022/05/15 02:21:36;;;;;;;18.40;13.68;;;;;;;12.19;89.76;97777.28;10253967;28;20027;-58
2022/05/15 02:26:35;;;;;;;23.45;14.77;;;;;;;12.09;89.87;97773.91;10251899;28;20412;-58
2022/05/15 02:31:34;;;;;;;24.52;16.45;;;;;;;12.05;90.05;97779.97;10248918;28;20053;-58
2022/05/15 02:36:33;;;;;;;24.20;15.20;;;;;;;11.98;89.91;97783.50;10253022;28;20100;-58
2022/05/15 02:41:33;;;;;;;23.75;16.33;;;;;;;11.82;90.37;97778.38;10251134;28;20030;-58
2022/05/15 02:46:32;;;;;;;22.92;16.23;;;;;;;11.89;90.30;97800.88;10252610;28;20074;-58
2022/05/15 02:51:31;;;;;;;25.00;17.58;;;;;;;11.85;90.84;97803.50;10253054;28;20108;-58
2022/05/15 02:56:33;;;;;;;24.73;16.40;;;;;;;11.85;90.08;97793.97;10253163;28;20034;-58
2022/05/15 03:01:33;;;;;;;23.33;15.48;;;;;;;11.85;89.78;97806.09;10251214;28;20065;-58
2022/05/15 03:06:33;;;;;;;21.85;15.65;;;;;;;11.81;90.15;97801.81;10251993;28;20060;-58
2022/05/15 03:11:32;;;;;;;;;;;;;;;11.73;90.53;97799.22;10249883;28;20061;-58
2022/05/15 03:16:31;;;;;;;24.95;16.42;;;;;;;11.65;90.74;97801.88;10251931;28;19953;-58
2022/05/15 03:21:30;;;;;;;22.23;15.57;;;;;;;11.60;90.46;97801.03;10252732;28;20062;-58
2022/05/15 03:26:31;;;;;;;23.50;15.93;;;;;;;11.55;90.06;97789.78;10247179;28;20116;-58
2022/05/15 03:31:31;;;;;;;24.30;16.90;;;;;;;11.58;90.52;97807.09;10251524;28;20116;-58
2022/05/15 03:36:30;;;;;;;23.10;16.75;;;;;;;11.53;90.89;97812.31;10251298;28;20461;-58
2022/05/15 03:41:29;;;;;;;22.60;16.13;;;;;;;11.46;90.30;97811.47;10250237;28;20084;-58
2022/05/15 03:46:28;;;;;;;21.65;14.85;;;;;;;11.52;90.39;97814.91;10250931;28;20141;-58
2022/05/15 03:51:27;;;;;;;22.98;15.68;;;;;;;11.51;89.85;97792.41;10249045;28;20104;-58
2022/05/15 04:01:44;;;;;;;28.52;19.15;;;;;;;11.79;89.45;97814.78;10251216;28;20062;-58
2022/05/15 04:06:43;;;;;;;24.77;16.55;;;;;;;11.86;89.34;97813.91;10250227;28;20038;-58
2022/05/15 04:11:42;;;;;;;;;;;;;;;11.94;89.59;97816.44;10251377;28;20064;-58
2022/05/15 04:16:43;;;;;;;22.60;14.10;;;;;;;12.01;89.78;97825.94;10251256;28;20013;-58
2022/05/15 04:21:42;;;;;;;26.17;15.40;;;;;;;12.20;90.05;97831.03;10249831;28;20077;-58
2022/05/15 04:26:42;;;;;;;18.52;13.70;;;;;;;12.33;89.96;97834.47;10250936;28;20041;-58
2022/05/15 04:31:41;;;;;;;20.42;14.07;;;;;;;12.59;89.29;97850.75;10251082;28;20086;-58
2022/05/15 04:36:40;;;;;;;17.63;14.32;;;;;;;12.69;88.85;97839.38;10248063;28;20069;-58
2022/05/15 04:41:39;;;;;;;21.77;17.85;;;;;;;12.82;88.11;97847.13;10211860;28;20077;-58
2022/05/15 04:46:39;;;;;;;63.92;51.90;;;;;;;12.83;87.75;97849.69;10249694;28;20026;-58
2022/05/15 04:51:38;;;;;;;54.75;41.72;;;;;;;13.03;87.60;97841.72;10250278;28;20074;-58
2022/05/15 04:56:37;;;;;;;34.28;26.33;;;;;;;13.32;87.26;97844.00;10250038;28;20125;-59
2022/05/15 05:01:36;;;;;;;29.23;20.20;;;;;;;13.49;86.58;97836.03;10254060;28;20038;-59
2022/05/15 05:06:35;;;;;;;24.83;19.67;;;;;;;13.76;85.60;97834.00;10257177;28;20070;-59
2022/05/15 05:11:34;;;;;;;19.13;14.18;;;;;;;13.80;85.13;97838.28;10257259;28;20508;-58
2022/05/15 05:16:33;;;;;;;17.65;13.85;;;;;;;14.05;85.25;97841.44;10255245;28;20112;-58
2022/05/15 05:21:32;;;;;;;20.67;14.60;;;;;;;14.11;85.30;97843.09;10253347;28;20069;-59
2022/05/15 05:26:31;;;;;;;22.90;16.52;;;;;;;14.20;85.29;97832.53;10256777;28;20030;-59
2022/05/15 05:31:31;;;;;;;21.63;14.55;;;;;;;14.55;84.73;97842.47;10256687;28;20072;-59
2022/05/15 05:36:30;;;;;;;21.20;15.57;;;;;;;14.76;84.65;97846.50;10256687;28;20492;-59
2022/05/15 05:41:29;;;;;;;23.50;17.63;;;;;;;14.96;83.48;97837.47;10256072;28;20493;-59
2022/05/15 05:46:28;;;;;;;24.80;15.70;;;;;;;15.24;82.71;97843.06;10255277;28;20034;-59
2022/05/15 05:51:28;;;;;;;20.60;15.88;;;;;;;15.42;82.14;97841.88;10255031;28;20081;-59
2022/05/15 05:56:26;;;;;;;;;;;;;;;15.78;81.65;97835.03;10255522;28;20066;-58
2022/05/15 06:01:25;;;;;;;15.90;13.15;;;;;;;16.20;79.94;97837.66;10254749;28;19990;-59
2022/05/15 06:06:24;;;;;;;19.13;14.32;;;;;;;16.65;78.80;97844.50;10249653;28;20030;-59
2022/05/15 06:11:23;;;;;;;;;;;;;;;17.10;77.39;97836.44;10250989;28;20034;-59
2022/05/15 06:16:22;;;;;;;15.05;12.23;;;;;;;17.53;74.74;97830.03;10254353;28;21019;-59
2022/05/15 06:21:21;;;;;;;;;;;;;;;17.89;73.06;97838.63;10254848;28;20454;-59
2022/05/15 06:26:20;;;;;;;15.80;12.03;;;;;;;18.32;71.88;97832.13;10254609;28;19913;-59
2022/05/15 06:31:19;;;;;;;;;;;;;;;18.73;69.83;97831.72;10255243;28;20082;-59
2022/05/15 06:36:17;;;;;;;19.13;11.97;;;;;;;19.01;67.28;97832.53;10253957;28;19913;-57
2022/05/15 06:41:17;;;;;;;15.15;12.23;;;;;;;19.11;65.19;97832.22;10252598;28;20433;-56
2022/05/15 06:46:16;;;;;;;14.32;11.55;;;;;;;19.18;65.78;97844.25;10250818;28;20093;-56
2022/05/15 06:51:16;;;;;;;9.70;7.25;;;;;;;19.39;65.67;97848.78;10230225;28;20074;-56
2022/05/15 07:01:33;;;;;;;6.93;5.50;;;;;;;19.97;59.96;97855.53;10250837;28;20105;-57
2022/05/15 07:06:33;;;;;;;10.23;4.90;;;;;;;20.33;56.63;97857.66;10252043;28;20042;-56
2022/05/15 07:11:32;;;;;;;6.78;4.10;;;;;;;20.48;54.06;97860.59;10252254;28;20061;-56
2022/05/15 07:16:31;;;;;;;6.55;4.55;;;;;;;20.56;53.69;97849.75;10252467;28;20054;-57
2022/05/15 07:21:30;;;;;;;6.85;4.30;;;;;;;20.79;53.15;97866.44;10252052;28;20057;-57
2022/05/15 07:26:29;;;;;;;5.82;3.70;;;;;;;20.72;49.77;97855.25;10251328;28;20048;-56
2022/05/15 07:31:28;;;;;;;6.95;3.75;;;;;;;20.87;48.31;97849.38;10248461;28;20035;-57
2022/05/15 07:36:27;;;;;;;4.88;3.47;;;;;;;20.82;48.58;97861.03;10250506;28;20054;-57
2022/05/15 07:41:26;;;;;;;5.15;3.13;;;;;;;20.80;48.61;97853.19;10250410;28;20410;-57
2022/05/15 07:46:25;;;;;;;5.05;3.60;;;;;;;21.07;49.05;97855.59;10251455;28;20041;-57
2022/05/15 07:51:24;;;;;;;4.50;3.40;;;;;;;21.04;47.36;97861.00;10251786;28;20069;-57
2022/05/15 07:56:23;;;;;;;6.18;3.45;;;;;;;21.09;47.48;97865.16;10251295;28;20039;-57
2022/05/15 08:01:22;;;;;;;5.57;3.65;;;;;;;20.92;47.39;97867.66;10250978;28;20800;-57
2022/05/15 08:11:38;;;;;;;6.35;3.67;;;;;;;21.12;48.05;97872.97;10248501;28;20053;-57
2022/05/15 08:16:38;;;;;;;5.43;3.53;;;;;;;21.29;47.52;97877.56;10250940;28;20038;-57
2022/05/15 08:26:56;;;;;;;4.50;3.33;;;;;;;21.58;46.30;97882.53;10251350;28;20826;-57
2022/05/15 08:31:55;;;;;;;6.65;3.58;;;;;;;21.81;46.20;97885.00;10249520;28;20088;-57
2022/05/15 08:36:55;;;;;;;6.05;4.10;;;;;;;21.92;45.25;97892.44;10256573;28;20066;-57
2022/05/15 08:42:05;;;;;;;5.82;3.13;;;;;;;22.11;44.62;97896.03;10258535;28;20073;-57
2022/05/15 08:47:31;;;;;;;4.20;3.60;;;;;;;22.09;44.15;97903.16;10256280;28;20073;-56
2022/05/15 08:52:57;;;;;;;6.95;3.70;;;;;;;21.98;43.82;97902.75;10256304;28;20106;-57
2022/05/15 08:58:02;;;;;;;6.70;3.38;;;;;;;21.91;42.70;97909.22;10257930;28;20070;-57
2022/05/15 09:03:21;;;;;;;4.28;3.20;;;;;;;21.93;42.59;97904.75;10256654;28;20089;-57
2022/05/15 09:08:36;;;;;;;;;;;;;;;22.28;43.48;97908.47;10256482;28;20492;-57
2022/05/15 09:14:10;;;;;;;6.03;3.25;;;;;;;22.48;41.02;97902.22;10257691;28;20377;-57
2022/05/15 09:19:09;;;;;;;6.40;3.45;;;;;;;22.55;41.64;97902.81;10255388;28;20074;-57
2022/05/15 09:24:58;;;;;;;8.93;3.20;;;;;;;22.85;40.59;97900.53;10256428;28;20281;-57
2022/05/15 09:29:59;;;;;;;8.18;3.00;;;;;;;23.41;40.38;97896.00;10251876;28;20062;-57
2022/05/15 09:35:00;;;;;;;6.82;3.40;;;;;;;23.49;38.20;97875.31;10255938;28;20069;-57
2022/05/15 09:40:08;;;;;;;5.60;3.28;;;;;;;23.76;39.17;97903.97;10253042;28;20062;-57
2022/05/15 09:45:07;;;;;;;5.95;3.83;;;;;;;23.50;40.13;97906.16;10255265;28;20581;-57
2022/05/15 09:50:29;;;;;;;7.18;3.40;;;;;;;23.33;39.37;97884.97;10255710;28;20039;-57
2022/05/15 09:55:28;;;;;;;3.65;2.97;;;;;;;23.20;39.32;97908.53;10225937;28;20077;-57
2022/05/15 10:00:32;;;;;;;6.18;3.13;;;;;;;23.28;40.06;97908.13;10254833;28;20034;-57
2022/05/15 10:05:34;;;;;;;6.68;3.42;;;;;;;23.25;39.90;97913.59;10256086;28;20082;-57
2022/05/15 10:10:38;;;;;;;6.50;3.55;;;;;;;23.36;39.23;97895.38;10254907;28;20605;-57
2022/05/15 10:15:48;;;;;;;8.15;3.85;;;;;;;23.44;39.15;97903.78;10254648;28;20066;-57
2022/05/15 10:20:49;;;;;;;6.63;3.90;;;;;;;23.55;38.51;97896.19;10251533;28;20058;-57
2022/05/15 10:25:48;;;;;;;5.43;3.53;;;;;;;23.77;38.66;97900.38;10253834;28;20058;-57
2022/05/15 10:31:01;;;;;;;6.72;3.92;;;;;;;23.85;39.86;97899.03;10254262;28;20054;-57
2022/05/15 10:36:09;;;;;;;4.65;3.60;;;;;;;23.55;38.64;97901.47;10251753;28;20073;-57
2022/05/15 10:42:03;;;;;;;7.10;3.80;;;;;;;23.48;39.32;97893.94;10254125;28;20068;-57
2022/05/15 10:47:12;;;;;;;6.80;3.83;;;;;;;23.08;38.56;97912.63;10252441;28;20077;-57
2022/05/15 10:52:20;;;;;;;5.47;3.60;;;;;;;22.80;39.11;97915.78;10253292;28;20065;-57
2022/05/15 10:57:26;;;;;;;6.53;3.67;;;;;;;22.98;39.33;97912.25;10251676;28;20062;-57
2022/05/15 11:02:37;;;;;;;5.75;3.20;;;;;;;22.95;39.54;97906.22;10248885;28;20074;-57
2022/05/15 11:07:44;;;;;;;6.05;3.70;;;;;;;23.09;39.49;97902.91;10249593;28;20068;-57
2022/05/15 11:13:21;;;;;;;8.02;3.72;;;;;;;22.49;40.67;97843.16;10253157;28;20072;-57
2022/05/15 11:18:23;;;;;;;5.97;3.25;;;;;;;23.16;39.67;97899.91;10252604;28;20062;-57
2022/05/15 11:23:43;;;;;;;10.15;4.18;;;;;;;23.42;40.46;97905.69;10252008;28;20070;-57
2022/05/15 11:28:52;;;;;;;8.05;4.05;;;;;;;23.30;39.71;97904.47;10252061;28;20138;-57
2022/05/15 11:33:57;;;;;;;5.75;3.47;;;;;;;22.94;39.43;97896.59;10251574;28;20089;-57
2022/05/15 11:39:14;;;;;;;5.22;3.55;;;;;;;22.75;39.96;97900.13;10252069;28;20457;-58
2022/05/15 11:44:33;;;;;;;4.65;3.47;;;;;;;22.78;38.26;97894.66;10247289;28;20065;-58
2022/05/15 11:49:46;;;;;;;6.65;3.67;;;;;;;22.96;38.95;97897.38;10252533;28;20136;-58
2022/05/15 11:54:50;;;;;;;6.35;4.43;;;;;;;23.03;41.11;97882.91;10251746;28;20069;-57
2022/05/15 11:59:55;;;;;;;8.35;4.30;;;;;;;23.38;41.77;97875.84;10251906;28;20062;-57
2022/05/15 12:05:22;;;;;;;8.38;4.60;;;;;;;23.44;41.41;97883.47;10251969;28;20061;-57
2022/05/15 12:10:41;;;;;;;7.97;4.90;;;;;;;23.46;41.95;97867.47;10245209;28;20525;-58
2022/05/15 12:15:44;;;;;;;9.18;5.95;;;;;;;23.74;42.67;97852.84;10259464;28;20057;-58
2022/05/15 12:20:47;;;;;;;8.02;5.25;;;;;;;23.69;41.28;97861.03;10258196;28;20803;-58
2022/05/15 12:25:57;;;;;;;9.63;6.45;;;;;;;23.69;43.08;97855.72;10259136;28;20100;-57
2022/05/15 12:30:56;;;;;;;8.98;6.65;;;;;;;23.82;43.66;97854.16;10255514;28;20125;-58
2022/05/15 12:35:55;;;;;;;9.50;6.72;;;;;;;24.04;43.19;97848.53;10257098;28;20065;-58
2022/05/15 12:41:03;;;;;;;9.43;7.03;;;;;;;23.88;42.63;97850.31;10257802;28;20110;-57
2022/05/15 12:46:02;;;;;;;10.67;7.23;;;;;;;24.01;41.86;97840.78;10257314;28;20065;-57
2022/05/15 12:51:09;;;;;;;9.88;7.50;;;;;;;23.77;43.49;97823.53;10255045;28;20054;-58
2022/05/15 12:56:10;;;;;;;7.68;6.30;;;;;;;23.38;43.28;97827.31;10257697;28;20469;-58
2022/05/15 13:01:13;;;;;;;8.82;7.20;;;;;;;23.32;43.41;97825.81;10256987;28;20510;-58
2022/05/15 13:06:12;;;;;;;7.82;6.10;;;;;;;23.28;42.71;97824.28;10257379;28;21271;-57
2022/05/15 13:11:20;;;;;;;8.45;6.20;;;;;;;23.30;42.65;97824.19;10253998;28;20508;-57
2022/05/15 13:16:22;;;;;;;8.35;6.53;;;;;;;23.32;43.59;97825.81;10257689;28;20084;-57
2022/05/15 13:21:31;;;;;;;9.57;7.47;;;;;;;23.61;43.86;97816.41;10254877;28;20086;-57
2022/05/15 13:26:38;;;;;;;7.97;6.57;;;;;;;23.82;42.32;97816.22;10255739;28;20069;-57
2022/05/15 13:31:37;;;;;;;8.73;6.53;;;;;;;23.76;43.49;97803.28;10256233;28;20074;-58
2022/05/15 13:36:36;;;;;;;10.82;7.13;;;;;;;23.56;44.01;97806.97;10256470;28;20073;-57
2022/05/15 13:46:58;;;;;;;9.80;7.45;;;;;;;24.03;43.82;97801.78;10256616;28;20066;-58
2022/05/15 13:52:23;;;;;;;9.73;7.60;;;;;;;23.98;44.28;97793.22;10252063;28;20050;-57
2022/05/15 13:57:23;;;;;;;11.25;7.20;;;;;;;23.65;44.69;97798.53;10254651;28;20064;-57
2022/05/15 14:02:22;;;;;;;9.00;7.03;;;;;;;23.13;46.27;97794.13;10255927;28;20471;-58
2022/05/15 14:07:41;;;;;;;8.93;6.90;;;;;;;22.79;46.23;97798.50;10255416;28;20489;-57
2022/05/15 14:12:53;;;;;;;11.23;7.15;;;;;;;22.47;45.70;97739.22;10255098;28;20457;-57
2022/05/15 14:17:54;;;;;;;9.38;7.47;;;;;;;23.06;45.72;97789.25;10253763;28;20049;-57
2022/05/15 14:22:53;;;;;;;10.27;7.50;;;;;;;23.13;46.77;97772.97;10254556;28;20434;-57
2022/05/15 14:27:53;;;;;;;8.10;6.38;;;;;;;22.89;45.17;97784.81;10254504;28;20733;-58
2022/05/15 14:32:55;;;;;;;8.30;7.05;;;;;;;22.60;46.58;97789.75;10254093;28;20078;-58
2022/05/15 14:37:55;;;;;;;8.13;6.70;;;;;;;22.23;47.50;97780.94;10250852;28;20814;-58
2022/05/15 14:42:54;;;;;;;8.80;6.13;;;;;;;22.06;47.07;97763.25;10268050;28;20128;-58
2022/05/15 14:48:00;;;;;;;7.22;6.50;;;;;;;22.09;47.50;97784.22;10253520;28;20910;-58
2022/05/15 14:53:02;;;;;;;6.43;5.70;;;;;;;22.49;46.52;97789.41;10255171;28;20069;-58
2022/05/15 14:58:01;;;;;;;7.60;5.53;;;;;;;22.67;45.30;97785.88;10252958;28;20057;-58
2022/05/15 15:03:00;;;;;;;6.32;5.65;;;;;;;22.80;45.21;97791.41;10253740;28;20065;-58
2022/05/15 15:07:59;;;;;;;9.07;5.85;;;;;;;22.55;46.39;97792.63;10253402;28;20027;-58
2022/05/15 15:12:58;;;;;;;9.40;6.30;;;;;;;22.37;48.07;97793.50;10251305;28;20793;-58
2022/05/15 15:17:57;;;;;;;7.60;5.72;;;;;;;22.42;48.57;97804.72;10248974;28;20387;-58
2022/05/15 15:22:56;;;;;;;9.48;6.47;;;;;;;22.42;48.42;97795.94;10250725;28;20069;-58
2022/05/15 15:27:55;;;;;;;9.52;5.70;;;;;;;22.55;48.19;97792.63;10251411;28;20054;-58
2022/05/15 15:32:57;;;;;;;6.97;5.80;;;;;;;22.29;48.16;97795.63;10251553;28;20101;-58
2022/05/15 15:38:15;;;;;;;8.82;6.22;;;;;;;22.35;48.34;97798.00;10250578;28;20061;-58
2022/05/15 15:43:16;;;;;;;7.22;6.03;;;;;;;22.12;48.69;97799.09;10250871;28;20069;-58
2022/05/15 15:48:17;;;;;;;6.88;5.93;;;;;;;22.02;49.17;97797.81;10251217;28;20074;-58
2022/05/15 15:53:18;;;;;;;6.85;5.65;;;;;;;22.29;48.45;97803.56;10251954;28;20058;-58
2022/05/15 15:58:19;;;;;;;13.65;6.22;;;;;;;22.44;48.21;97797.56;10250850;28;20050;-58
2022/05/15 16:03:18;;;;;;;7.13;5.68;;;;;;;22.34;48.31;97807.72;10248007;28;20097;-58
2022/05/15 16:08:18;;;;;;;12.50;6.60;;;;;;;22.08;48.51;97816.00;10249481;28;20057;-58
2022/05/15 16:13:17;;;;;;;7.60;6.40;;;;;;;22.07;49.52;97822.25;10251379;28;20081;-58
2022/05/15 16:18:18;;;;;;;11.43;6.15;;;;;;;22.03;50.04;97812.72;10251220;28;20487;-58
2022/05/15 16:23:19;;;;;;;10.23;5.43;;;;;;;22.02;49.96;97793.38;10251499;28;20505;-58
2022/05/15 16:28:21;;;;;;;7.53;5.93;;;;;;;22.27;49.70;97829.22;10250871;28;20062;-58
2022/05/15 16:33:20;;;;;;;7.43;5.72;;;;;;;22.26;49.60;97838.94;10246517;28;20070;-58
2022/05/15 16:38:19;;;;;;;7.70;6.22;;;;;;;22.14;49.66;97831.59;10250790;28;20030;-58
2022/05/15 16:43:18;;;;;;;9.05;5.90;;;;;;;22.26;49.56;97832.81;10247739;28;20026;-58
2022/05/15 16:48:17;;;;;;;8.15;5.88;;;;;;;22.13;49.27;97830.75;10251041;28;20546;-58
2022/05/15 16:53:20;;;;;;;8.88;5.93;;;;;;;22.08;48.97;97831.88;10250840;28;20054;-58
2022/05/15 16:58:19;;;;;;;9.70;6.20;;;;;;;21.88;49.77;97820.41;10256190;28;20062;-58
2022/05/15 17:03:18;;;;;;;7.43;6.00;;;;;;;21.88;49.81;97833.63;10256034;28;20058;-58
2022/05/15 17:08:17;;;;;;;10.23;6.47;;;;;;;21.79;49.88;97838.47;10257347;28;20069;-58
2022/05/15 17:13:17;;;;;;;8.63;5.72;;;;;;;21.78;50.16;97842.91;10257726;28;20077;-58
2022/05/15 17:18:16;;;;;;;8.05;5.97;;;;;;;21.66;50.44;97848.69;10255477;28;20073;-58
2022/05/15 17:23:15;;;;;;;7.53;6.07;;;;;;;21.42;50.84;97856.78;10256944;28;20045;-58
2022/05/15 17:34:12;;;;;;;8.13;5.97;;;;;;;21.23;51.41;97855.84;10252398;28;20034;-58
2022/05/15 17:38:50;;;;;;;10.70;6.53;;;;;;;20.96;52.40;97871.91;10254135;28;20066;-58
2022/05/15 17:43:49;;;;;;;9.85;6.55;;;;;;;20.84;52.63;97867.94;10256079;28;20026;-58
2022/05/15 17:48:48;;;;;;;12.80;7.20;;;;;;;20.61;53.34;97868.91;10256267;28;20445;-58
2022/05/15 17:53:47;;;;;;;11.15;7.07;;;;;;;20.53;53.56;97891.19;10252531;28;20041;-58
2022/05/15 17:58:47;;;;;;;17.42;10.10;;;;;;;20.35;54.83;97898.84;10254550;28;20030;-58
2022/05/15 18:03:46;;;;;;;17.50;10.85;;;;;;;20.09;56.39;97897.19;10253999;28;20474;-58
2022/05/15 18:08:45;;;;;;;17.88;8.75;;;;;;;19.85;57.82;97898.97;10250105;28;20517;-57
2022/05/15 18:13:44;;;;;;;10.07;8.05;;;;;;;19.59;58.75;97913.06;10254978;28;20496;-57
2022/05/15 18:18:43;;;;;;;9.38;7.70;;;;;;;19.36;59.46;97917.28;10253832;28;20066;-57
2022/05/15 18:23:44;;;;;;;10.32;7.60;;;;;;;19.18;60.20;97933.69;10252404;28;20038;-57
2022/05/15 18:28:45;;;;;;;9.93;7.10;;;;;;;18.88;61.32;97920.66;10254369;28;20477;-58
2022/05/15 18:33:44;;;;;;;9.90;7.47;;;;;;;18.45;61.64;97900.91;10251742;28;20078;-57
2022/05/15 18:38:43;;;;;;;9.90;7.40;;;;;;;18.43;62.33;97923.72;10253889;28;20065;-57
2022/05/15 18:43:42;;;;;;;12.23;7.65;;;;;;;18.21;63.42;97934.03;10249000;28;20026;-57
2022/05/15 18:48:41;;;;;;;;;;;;;;;18.06;64.36;97953.72;10253781;28;20104;-58
2022/05/15 18:58:57;;;;;;;14.52;9.90;;;;;;;17.71;65.12;97971.25;10253495;28;20486;-58
2022/05/15 19:03:57;;;;;;;19.20;11.18;;;;;;;17.60;65.50;97975.91;10220610;28;20467;-58
2022/05/15 19:08:56;;;;;;;11.95;9.90;;;;;;;17.47;65.95;97975.38;10212532;28;20085;-58
2022/05/15 19:13:55;;;;;;;11.65;8.50;;;;;;;17.26;66.34;97970.63;10227918;28;20121;-58
2022/05/15 19:18:55;;;;;;;10.68;8.48;;;;;;;17.15;66.88;97970.91;10252455;28;20073;-59
2022/05/15 19:23:54;;;;;;;11.40;8.27;;;;;;;17.00;67.41;97982.59;10251571;28;20506;-59
2022/05/15 19:28:53;;;;;;;;;;;;;;;16.83;68.14;97985.59;10250209;28;20478;-59
2022/05/15 19:33:52;;;;;;;15.67;10.77;;;;;;;16.69;68.74;97987.66;10248247;28;20012;-57
2022/05/15 19:38:51;;;;;;;14.32;10.98;;;;;;;16.56;69.43;97986.19;10251680;28;20069;-58
2022/05/15 19:43:50;;;;;;;;;;;;;;;16.46;69.67;97986.38;10251670;28;20100;-58
2022/05/15 19:48:50;;;;;;;15.03;9.43;;;;;;;16.29;70.19;97984.09;10251681;28;19918;-57
2022/05/15 19:53:49;;;;;;;11.93;9.93;;;;;;;16.26;70.49;97988.56;10251471;28;20072;-58
2022/05/15 19:58:48;;;;;;;13.40;11.00;;;;;;;16.17;71.01;97993.97;10248515;28;20747;-58
2022/05/15 20:03:47;;;;;;;;;;;;;;;16.03;71.73;97996.84;10251236;28;20731;-57
2022/05/15 20:14:08;;;;;;;13.68;10.80;;;;;;;15.81;72.37;97997.25;10250497;28;20524;-58
2022/05/15 20:19:08;;;;;;;14.48;10.05;;;;;;;15.66;73.04;97989.63;10247332;28;20057;-58
2022/05/15 20:24:08;;;;;;;12.38;9.82;;;;;;;15.56;73.18;97996.78;10248784;28;20070;-57
2022/05/15 20:29:07;;;;;;;12.82;10.50;;;;;;;15.44;73.94;97997.00;10249991;28;20497;-58
2022/05/15 20:34:19;;;;;;;13.73;10.63;;;;;;;15.32;74.52;97991.94;10258989;28;20069;-57
2022/05/15 20:39:20;;;;;;;14.88;11.18;;;;;;;15.19;75.18;97991.28;10258383;28;20042;-57
2022/05/15 20:44:23;;;;;;;17.25;11.45;;;;;;;15.10;75.39;98000.13;10257906;28;20066;-57
2022/05/15 20:49:22;;;;;;;14.52;11.75;;;;;;;14.98;76.13;98008.16;10259445;28;20077;-57
2022/05/15 20:54:22;;;;;;;18.50;12.32;;;;;;;14.93;76.33;98013.47;10257053;28;20103;-57
2022/05/15 20:59:21;;;;;;;15.65;11.90;;;;;;;14.85;77.64;98007.50;10254185;28;20046;-57
2022/05/15 21:04:20;;;;;;;;;;;;;;;14.80;78.03;98002.34;10258357;28;20026;-58
2022/05/15 21:09:18;;;;;;;17.95;13.95;;;;;;;14.59;79.80;97985.16;10256514;28;20004;-57
2022/05/15 21:14:17;;;;;;;17.88;13.30;;;;;;;14.63;79.33;98006.88;10256863;28;20042;-57
2022/05/15 21:19:16;;;;;;;;;;;;;;;14.49;80.66;98014.88;10256625;28;20062;-57
2022/05/15 21:24:15;;;;;;;15.55;12.10;;;;;;;14.29;81.86;98012.53;10256513;28;20015;-57
2022/05/15 21:29:15;;;;;;;18.17;12.55;;;;;;;14.28;81.43;98016.00;10256354;28;20062;-58
2022/05/15 21:34:14;;;;;;;18.73;13.23;;;;;;;14.23;81.25;98020.41;10257260;28;20502;-57
2022/05/15 21:44:38;;;;;;;24.17;18.25;;;;;;;14.08;81.91;98028.44;10250870;28;20061;-57
2022/05/15 21:49:37;;;;;;;25.35;16.42;;;;;;;14.07;82.09;98031.91;10255763;28;20104;-58
2022/05/15 21:54:36;;;;;;;21.95;16.38;;;;;;;14.01;82.18;98034.56;10256421;28;20522;-57
2022/05/15 22:04:53;;;;;;;22.58;16.77;;;;;;;13.88;82.90;98026.88;10255756;28;20545;-57
2022/05/15 22:09:52;;;;;;;20.88;15.63;;;;;;;13.77;83.59;98027.00;10255214;28;20070;-57
2022/05/15 22:14:52;;;;;;;23.60;16.88;;;;;;;13.78;83.73;98027.84;10252590;28;20046;-57
2022/05/15 22:19:51;;;;;;;24.65;16.42;;;;;;;13.68;84.07;98034.91;10213923;28;20059;-57
2022/05/15 22:24:50;;;;;;;21.58;15.90;;;;;;;13.60;84.25;98025.41;10221495;28;20054;-57
2022/05/15 22:29:49;;;;;;;23.75;17.98;;;;;;;13.48;84.39;98029.81;10253781;28;20421;-57
2022/05/15 22:34:48;;;;;;;;;;;;;;;13.32;85.35;98021.25;10254382;28;20053;-57
2022/05/15 22:39:47;;;;;;;22.65;17.17;;;;;;;13.23;85.43;98020.44;10254435;28;19916;-57
2022/05/15 22:44:46;;;;;;;23.08;16.65;;;;;;;13.02;85.63;97998.88;10252999;28;20053;-57
2022/05/15 22:49:45;;;;;;;;;;;;;;;13.04;85.68;98010.16;10252674;28;20061;-57
2022/05/15 22:54:44;;;;;;;24.05;16.33;;;;;;;12.95;86.57;98015.41;10253530;28;19921;-58
2022/05/15 22:59:43;;;;;;;23.23;17.05;;;;;;;12.89;87.35;98015.47;10253024;28;20049;-57
2022/05/15 23:10:08;;;;;;;22.13;16.83;;;;;;;12.61;87.59;97987.00;10223764;28;20520;-57
2022/05/15 23:15:08;;;;;;;27.05;19.23;;;;;;;12.68;87.95;98000.84;10252454;28;20085;-57
2022/05/15 23:20:10;;;;;;;27.25;19.73;;;;;;;12.66;87.97;98000.84;10252201;28;20911;-57
2022/05/15 23:25:09;;;;;;;28.58;18.77;;;;;;;12.62;87.97;98006.94;10252533;28;20477;-57
2022/05/15 23:30:11;;;;;;;25.02;19.17;;;;;;;12.64;87.65;98006.94;10252092;28;20850;-57
2022/05/15 23:35:11;;;;;;;26.67;18.27;;;;;;;12.54;87.82;98000.06;10250930;28;20114;-57
2022/05/15 23:40:11;;;;;;;26.30;19.25;;;;;;;12.60;87.72;98008.69;10252483;28;20085;-57
2022/05/15 23:45:14;;;;;;;24.30;17.33;;;;;;;12.59;87.50;98009.56;10252051;28;20494;-57
2022/05/15 23:50:14;;;;;;;25.13;17.48;;;;;;;12.52;87.36;98013.94;10247916;28;20050;-57
2022/05/15 23:55:13;;;;;;;25.92;19.25;;;;;;;12.47;87.72;98012.22;10249906;28;20062;-57
